Details for Ryanair at GCTS




Go Back


Latest METAR
Local Time

GCTS 212300Z 03004KT 350V070 9999 BKN022 20/16 Q1021 NOSIG

22/06/2018, 00:32:55

Description
Results
Ryanair Logo
Number of Pilots based at GCTS
0 Pilots Based here
Number of Ryanair Flights Departed from GCTS
4 Flights Departed
Number of Ryanair Flights Arrived at GCTS
3 Flights Arrived
Number of Ryanair Schedules Departing from GCTS
54 Schedules
Number of Ryanair Schedules Arriving at GCTS
52 Schedules
Number of Ryanair Schedules Departing from GCTS availible today
14 Schedules Today
Number of Ryanair Schedules Arriving at GCTS availible today
14 Schedules Today
Average Landing Rate at GCTS
-225 fpm
Ryanair Average Landing Rate at GCTS
-244 fpm
Total Fuel Purchased at GCTS by Ryanair
27,658.69 kgs / 60,976.35 lbs

Pilots Based at GCTS


Pilot ID
Pilot Name
Pilot Rank
No. of Flights
No. of Flying Hours
There are no pilots assigned to this hub!   Will you be the first?
Content